createdAt,value
2016-08-25T00:00:23.820Z,0
2016-08-25T00:01:23.123Z,0
2016-08-25T00:02:23.890Z,0
2016-08-25T00:03:25.526Z,0
2016-08-25T00:04:23.853Z,0
2016-08-25T00:05:24.977Z,0
2016-08-25T00:06:23.920Z,0
2016-08-25T00:07:23.875Z,0
2016-08-25T00:08:23.882Z,0
2016-08-25T00:09:23.190Z,0
2016-08-25T00:10:23.904Z,0
2016-08-25T00:11:23.911Z,0
2016-08-25T00:12:22.522Z,0
2016-08-25T00:13:23.927Z,0
2016-08-25T00:14:23.326Z,0
2016-08-25T00:15:24.645Z,0
2016-08-25T00:16:23.241Z,0
2016-08-25T00:17:24.108Z,0
2016-08-25T00:18:23.905Z,0
2016-08-25T00:19:24.693Z,0
2016-08-25T00:20:23.280Z,0
2016-08-25T00:21:23.993Z,0
2016-08-25T00:22:23.296Z,0
2016-08-25T00:23:23.303Z,0
2016-08-25T00:24:24.007Z,0
2016-08-25T00:25:23.412Z,0
2016-08-25T00:26:24.735Z,0
2016-08-25T00:27:23.334Z,0
2016-08-25T00:28:24.044Z,0
2016-08-25T00:29:23.343Z,0
2016-08-25T00:30:24.762Z,0
2016-08-25T00:31:24.082Z,0
2016-08-25T00:32:24.079Z,0
2016-08-25T00:33:24.081Z,0
2016-08-25T00:34:23.387Z,0
2016-08-25T00:35:24.803Z,0
2016-08-25T00:36:24.107Z,0
2016-08-25T00:37:23.408Z,0
2016-08-25T00:38:24.641Z,0
2016-08-25T00:39:24.843Z,0
2016-08-25T00:40:23.980Z,0
2016-08-25T00:41:24.870Z,0
2016-08-25T00:42:24.155Z,0
2016-08-25T00:43:24.877Z,0
2016-08-25T00:44:24.170Z,0
2016-08-25T00:45:24.885Z,0
2016-08-25T00:46:24.188Z,0
2016-08-25T00:47:24.910Z,0
2016-08-25T00:48:23.544Z,0
2016-08-25T00:49:24.956Z,0
2016-08-25T00:50:22.855Z,0
2016-08-25T00:51:24.933Z,0
2016-08-25T00:52:23.527Z,0
2016-08-25T00:53:24.240Z,0
2016-08-25T00:54:24.253Z,0
2016-08-25T00:55:23.547Z,0
2016-08-25T00:56:23.560Z,0
2016-08-25T00:57:23.572Z,0
2016-08-25T00:58:24.285Z,0
2016-08-25T00:59:23.593Z,0
2016-08-25T01:00:25.037Z,0
2016-08-25T01:01:24.322Z,0
2016-08-25T01:02:23.654Z,0
2016-08-25T01:03:24.374Z,0
2016-08-25T01:04:24.828Z,0
2016-08-25T01:05:24.332Z,0
2016-08-25T01:06:23.638Z,0
2016-08-25T01:07:24.354Z,0
2016-08-25T01:08:23.662Z,0
2016-08-25T01:09:24.366Z,0
2016-08-25T01:10:24.378Z,0
2016-08-25T01:11:24.378Z,0
2016-08-25T01:12:25.099Z,0
2016-08-25T01:13:23.693Z,0
2016-08-25T01:14:24.454Z,0
2016-08-25T01:15:24.878Z,0
2016-08-25T01:16:23.709Z,0
2016-08-25T01:17:24.430Z,0
2016-08-25T01:18:24.437Z,0
2016-08-25T01:19:24.456Z,0
2016-08-25T01:20:23.751Z,0
2016-08-25T01:21:24.467Z,0
2016-08-25T01:22:25.175Z,0
2016-08-25T01:23:23.775Z,0
2016-08-25T01:24:25.780Z,0
2016-08-25T01:25:25.207Z,0
2016-08-25T01:26:24.294Z,0
2016-08-25T01:27:24.505Z,0
2016-08-25T01:28:23.810Z,0
2016-08-25T01:29:25.234Z,0
2016-08-25T01:30:23.824Z,0
2016-08-25T01:31:24.547Z,0
2016-08-25T01:32:23.845Z,0
2016-08-25T01:33:24.560Z,0
2016-08-25T01:34:25.272Z,0
2016-08-25T01:35:25.630Z,0
2016-08-25T01:36:24.635Z,0
2016-08-25T01:37:25.508Z,0
2016-08-25T01:38:24.598Z,0
2016-08-25T01:39:23.898Z,0
2016-08-25T01:40:25.321Z,0
2016-08-25T01:41:25.330Z,0
2016-08-25T01:42:24.631Z,0
2016-08-25T01:43:24.631Z,0
2016-08-25T01:44:24.645Z,0
2016-08-25T01:45:23.943Z,0
2016-08-25T01:46:26.368Z,0
2016-08-25T01:47:25.728Z,0
2016-08-25T01:48:24.973Z,0
2016-08-25T01:49:25.438Z,0
2016-08-25T01:50:24.035Z,0
2016-08-25T01:51:24.704Z,0
2016-08-25T01:52:25.415Z,0
2016-08-25T01:53:24.719Z,0
2016-08-25T01:54:24.718Z,0
2016-08-25T01:55:24.734Z,0
2016-08-25T01:56:24.741Z,0
2016-08-25T01:57:26.304Z,0
2016-08-25T01:58:23.342Z,0
2016-08-25T01:59:25.478Z,0
2016-08-25T02:00:24.770Z,0
2016-08-25T02:01:25.297Z,0
2016-08-25T02:02:24.786Z,0
2016-08-25T02:03:24.847Z,0
2016-08-25T02:04:24.097Z,0
2016-08-25T02:05:24.908Z,0
2016-08-25T02:06:24.124Z,0
2016-08-25T02:07:24.827Z,0
2016-08-25T02:08:26.306Z,0
2016-08-25T02:09:24.138Z,0
2016-08-25T02:10:24.141Z,0
2016-08-25T02:11:24.149Z,0
2016-08-25T02:12:26.181Z,0
2016-08-25T02:13:24.165Z,0
2016-08-25T02:14:24.176Z,0
2016-08-25T02:15:24.890Z,0
2016-08-25T02:16:24.954Z,0
2016-08-25T02:17:25.614Z,0
2016-08-25T02:18:24.206Z,0
2016-08-25T02:19:25.627Z,0
2016-08-25T02:20:25.636Z,0
2016-08-25T02:21:24.230Z,0
2016-08-25T02:22:24.948Z,0
2016-08-25T02:23:25.198Z,0
2016-08-25T02:24:24.256Z,0
2016-08-25T02:25:24.985Z,0
2016-08-25T02:26:24.273Z,0
2016-08-25T02:27:24.983Z,0
2016-08-25T02:28:24.295Z,0
2016-08-25T02:29:24.294Z,0
2016-08-25T02:30:25.011Z,0
2016-08-25T02:31:24.319Z,0
2016-08-25T02:32:26.055Z,0
2016-08-25T02:33:24.332Z,0
2016-08-25T02:34:25.943Z,0
2016-08-25T02:35:24.338Z,0
2016-08-25T02:36:23.652Z,0
2016-08-25T02:37:25.072Z,0
2016-08-25T02:38:24.367Z,0
2016-08-25T02:39:25.085Z,0
2016-08-25T02:40:24.380Z,0
2016-08-25T02:41:25.097Z,0
2016-08-25T02:42:25.111Z,0
2016-08-25T02:43:26.113Z,0
2016-08-25T02:44:24.415Z,0
2016-08-25T02:45:24.569Z,0
2016-08-25T02:46:25.134Z,0
2016-08-25T02:47:26.599Z,0
2016-08-25T02:48:25.151Z,0
2016-08-25T02:49:24.455Z,0
2016-08-25T02:50:25.182Z,0
2016-08-25T02:51:25.878Z,0
2016-08-25T02:52:24.523Z,0
2016-08-25T02:53:25.193Z,0
2016-08-25T02:54:25.659Z,0
2016-08-25T02:55:25.918Z,0
2016-08-25T02:56:24.953Z,0
2016-08-25T02:57:25.923Z,0
2016-08-25T02:58:24.529Z,0
2016-08-25T02:59:24.531Z,0
2016-08-25T03:00:25.259Z,0
2016-08-25T03:01:25.253Z,0
2016-08-25T03:02:24.552Z,0
2016-08-25T03:03:25.267Z,0
2016-08-25T03:04:25.277Z,0
2016-08-25T03:05:25.382Z,0
2016-08-25T03:06:25.300Z,0
2016-08-25T03:07:26.003Z,0
2016-08-25T03:08:25.356Z,0
2016-08-25T03:09:26.590Z,0
2016-08-25T03:10:26.031Z,0
2016-08-25T03:11:25.325Z,0
2016-08-25T03:12:25.344Z,0
2016-08-25T03:13:25.348Z,0
2016-08-25T03:14:24.662Z,0
2016-08-25T03:15:24.653Z,0
2016-08-25T03:16:23.956Z,0
2016-08-25T03:17:24.677Z,0
2016-08-25T03:18:25.386Z,0
2016-08-25T03:19:26.099Z,0
2016-08-25T03:20:26.355Z,0
2016-08-25T03:21:26.125Z,0
2016-08-25T03:22:24.715Z,0
2016-08-25T03:23:25.425Z,0
2016-08-25T03:24:25.435Z,0
2016-08-25T03:25:25.439Z,0
2016-08-25T03:26:24.744Z,0
2016-08-25T03:27:24.041Z,0
2016-08-25T03:28:24.751Z,0
2016-08-25T03:29:25.480Z,0
2016-08-25T03:30:24.065Z,0
2016-08-25T03:31:26.340Z,0
2016-08-25T03:32:25.496Z,0
2016-08-25T03:33:25.502Z,0
2016-08-25T03:34:24.805Z,0
2016-08-25T03:35:26.225Z,0
2016-08-25T03:36:25.526Z,0
2016-08-25T03:37:25.533Z,0
2016-08-25T03:38:25.544Z,0
2016-08-25T03:39:24.849Z,0
2016-08-25T03:40:25.555Z,0
2016-08-25T03:41:24.880Z,0
2016-08-25T03:42:25.824Z,0
2016-08-25T03:43:25.580Z,0
2016-08-25T03:44:27.124Z,0
2016-08-25T03:45:24.890Z,0
2016-08-25T03:46:25.616Z,0
2016-08-25T03:47:25.615Z,0
2016-08-25T03:48:25.628Z,0
2016-08-25T03:49:25.631Z,0
2016-08-25T03:50:24.944Z,0
2016-08-25T03:51:25.704Z,0
2016-08-25T03:52:25.661Z,0
2016-08-25T03:53:25.104Z,0
2016-08-25T03:54:25.666Z,0
2016-08-25T03:55:27.086Z,0
2016-08-25T03:56:25.682Z,0
2016-08-25T03:57:24.986Z,0
2016-08-25T03:58:24.284Z,0
2016-08-25T03:59:25.708Z,0
2016-08-25T04:00:24.304Z,0
2016-08-25T04:01:25.737Z,0
2016-08-25T04:02:25.729Z,4
2016-08-25T04:03:25.737Z,4
2016-08-25T04:04:27.440Z,0
2016-08-25T04:05:25.046Z,0
2016-08-25T04:06:26.830Z,4
2016-08-25T04:07:25.768Z,4
2016-08-25T04:08:26.536Z,4
2016-08-25T04:09:26.491Z,4
2016-08-25T04:10:25.086Z,4
2016-08-25T04:11:25.802Z,8
2016-08-25T04:12:26.512Z,4
2016-08-25T04:13:26.530Z,4
2016-08-25T04:14:25.821Z,8
2016-08-25T04:15:25.123Z,8
2016-08-25T04:16:25.849Z,8
2016-08-25T04:17:26.204Z,8
2016-08-25T04:18:26.559Z,12
2016-08-25T04:19:27.383Z,12
2016-08-25T04:20:25.873Z,16
2016-08-25T04:21:25.876Z,20
2016-08-25T04:22:26.595Z,20
2016-08-25T04:23:25.892Z,24
2016-08-25T04:24:25.196Z,24
2016-08-25T04:25:25.208Z,32
2016-08-25T04:26:26.903Z,32
2016-08-25T04:27:24.513Z,36
2016-08-25T04:28:26.381Z,40
2016-08-25T04:29:25.242Z,44
2016-08-25T04:30:27.707Z,48
2016-08-25T04:31:25.947Z,52
2016-08-25T04:32:26.673Z,56
2016-08-25T04:33:25.271Z,60
2016-08-25T04:34:26.682Z,68
2016-08-25T04:35:26.702Z,72
2016-08-25T04:36:26.705Z,80
2016-08-25T04:37:26.704Z,84
2016-08-25T04:38:25.303Z,92
2016-08-25T04:39:25.961Z,96
2016-08-25T04:40:25.315Z,104
2016-08-25T04:41:25.325Z,108
2016-08-25T04:42:25.333Z,116
2016-08-25T04:43:26.053Z,124
2016-08-25T04:44:26.056Z,128
2016-08-25T04:45:25.372Z,136
2016-08-25T04:46:26.074Z,144
2016-08-25T04:47:26.081Z,152
2016-08-25T04:48:26.815Z,160
2016-08-25T04:49:26.805Z,168
2016-08-25T04:50:26.056Z,172
2016-08-25T04:51:25.455Z,184
2016-08-25T04:52:27.961Z,192
2016-08-25T04:53:25.421Z,200
2016-08-25T04:54:25.474Z,204
2016-08-25T04:55:25.433Z,212
2016-08-25T04:56:25.443Z,224
2016-08-25T04:57:26.201Z,228
2016-08-25T04:58:26.167Z,236
2016-08-25T04:59:25.463Z,244
2016-08-25T05:00:24.773Z,252
2016-08-25T05:01:27.145Z,260
2016-08-25T05:02:25.488Z,268
2016-08-25T05:03:26.919Z,280
2016-08-25T05:04:26.213Z,284
2016-08-25T05:05:24.805Z,296
2016-08-25T05:06:25.516Z,300
2016-08-25T05:07:24.823Z,308
2016-08-25T05:08:26.240Z,316
2016-08-25T05:09:26.249Z,328
2016-08-25T05:10:25.605Z,332
2016-08-25T05:11:26.263Z,340
2016-08-25T05:12:24.957Z,352
2016-08-25T05:13:25.578Z,360
2016-08-25T05:14:27.012Z,364
2016-08-25T05:15:27.002Z,372
2016-08-25T05:16:25.607Z,380
2016-08-25T05:17:24.903Z,388
2016-08-25T05:18:25.622Z,404
2016-08-25T05:19:25.627Z,456
2016-08-25T05:20:27.054Z,612
2016-08-25T05:21:26.360Z,944
2016-08-25T05:22:27.064Z,1640
2016-08-25T05:23:25.668Z,2068
2016-08-25T05:24:26.370Z,1528
2016-08-25T05:25:27.129Z,1180
2016-08-25T05:26:25.679Z,1236
2016-08-25T05:27:27.699Z,1512
2016-08-25T05:28:25.697Z,2112
2016-08-25T05:29:26.409Z,2184
2016-08-25T05:30:25.716Z,1308
2016-08-25T05:31:26.430Z,972
2016-08-25T05:32:25.727Z,904
2016-08-25T05:33:25.741Z,876
2016-08-25T05:34:25.749Z,884
2016-08-25T05:35:26.462Z,772
2016-08-25T05:36:27.178Z,760
2016-08-25T05:37:26.477Z,696
2016-08-25T05:38:25.796Z,640
2016-08-25T05:39:27.249Z,644
2016-08-25T05:40:26.514Z,680
2016-08-25T05:41:26.524Z,664
2016-08-25T05:42:27.227Z,724
2016-08-25T05:43:25.833Z,800
2016-08-25T05:44:26.535Z,948
2016-08-25T05:45:26.546Z,840
2016-08-25T05:46:26.551Z,1068
2016-08-25T05:47:27.422Z,1188
2016-08-25T05:48:26.567Z,1032
2016-08-25T05:49:27.430Z,788
2016-08-25T05:50:25.878Z,844
2016-08-25T05:51:26.640Z,884
2016-08-25T05:52:26.602Z,684
2016-08-25T05:53:26.051Z,696
2016-08-25T05:54:26.662Z,688
2016-08-25T05:55:25.208Z,800
2016-08-25T05:56:26.628Z,836
2016-08-25T05:57:26.637Z,692
2016-08-25T05:58:25.954Z,688
2016-08-25T05:59:26.652Z,780
2016-08-25T06:00:25.256Z,1036
2016-08-25T06:01:25.965Z,1028
2016-08-25T06:02:27.384Z,876
2016-08-25T06:03:27.398Z,724
2016-08-25T06:04:25.282Z,716
2016-08-25T06:05:26.701Z,720
2016-08-25T06:06:26.009Z,728
2016-08-25T06:07:26.729Z,800
2016-08-25T06:08:26.740Z,804
2016-08-25T06:09:27.458Z,768
2016-08-25T06:10:26.795Z,804
2016-08-25T06:11:27.422Z,796
2016-08-25T06:12:27.474Z,784
2016-08-25T06:13:26.574Z,792
2016-08-25T06:14:26.074Z,796
2016-08-25T06:15:26.782Z,796
2016-08-25T06:16:26.093Z,852
2016-08-25T06:17:26.801Z,1036
2016-08-25T06:18:26.813Z,1180
2016-08-25T06:19:26.819Z,1128
2016-08-25T06:20:26.117Z,1192
2016-08-25T06:21:26.830Z,2220
2016-08-25T06:22:27.401Z,4428
2016-08-25T06:23:26.139Z,4788
2016-08-25T06:24:26.858Z,3424
2016-08-25T06:25:26.160Z,3896
2016-08-25T06:26:27.579Z,5508
2016-08-25T06:27:26.172Z,3556
2016-08-25T06:28:26.945Z,2800
2016-08-25T06:29:27.602Z,3620
2016-08-25T06:30:26.902Z,6096
2016-08-25T06:31:26.914Z,9432
2016-08-25T06:32:26.217Z,11160
2016-08-25T06:33:26.883Z,9840
2016-08-25T06:34:27.652Z,7904
2016-08-25T06:35:26.097Z,5192
2016-08-25T06:36:26.965Z,5424
2016-08-25T06:37:27.523Z,11160
2016-08-25T06:38:27.687Z,15872
2016-08-25T06:39:25.575Z,16160
2016-08-25T06:40:27.001Z,16192
2016-08-25T06:41:27.012Z,17152
2016-08-25T06:42:26.315Z,17152
2016-08-25T06:43:26.373Z,16128
2016-08-25T06:44:26.528Z,16416
2016-08-25T06:45:26.339Z,17696
2016-08-25T06:46:25.752Z,18912
2016-08-25T06:47:25.661Z,19264
2016-08-25T06:48:26.943Z,19776
2016-08-25T06:49:27.812Z,20704
2016-08-25T06:50:27.106Z,21120
2016-08-25T06:51:27.268Z,21024
2016-08-25T06:52:25.717Z,20864
2016-08-25T06:53:27.908Z,20864
2016-08-25T06:54:27.860Z,21440
2016-08-25T06:55:27.224Z,21600
2016-08-25T06:56:27.885Z,21952
2016-08-25T06:57:27.869Z,22176
2016-08-25T06:58:27.912Z,21728
2016-08-25T06:59:27.220Z,21408
2016-08-25T07:00:27.981Z,21504
2016-08-25T07:01:27.239Z,21504
2016-08-25T07:02:27.979Z,21600
2016-08-25T07:03:26.554Z,22624
2016-08-25T07:04:27.323Z,22816
2016-08-25T07:05:27.304Z,17888
2016-08-25T07:06:28.017Z,7176
2016-08-25T07:07:25.905Z,1340
2016-08-25T07:08:28.422Z,972
2016-08-25T07:09:27.332Z,800
2016-08-25T07:10:27.548Z,760
2016-08-25T07:11:28.111Z,744
2016-08-25T07:12:26.658Z,740
2016-08-25T07:13:26.666Z,728
2016-08-25T07:14:26.023Z,724
2016-08-25T07:15:26.687Z,716
2016-08-25T07:16:27.405Z,716
2016-08-25T07:17:27.415Z,712
2016-08-25T07:18:26.723Z,712
2016-08-25T07:19:27.945Z,712
2016-08-25T07:20:27.445Z,704
2016-08-25T07:21:27.451Z,704
2016-08-25T07:22:26.816Z,704
2016-08-25T07:23:26.770Z,700
2016-08-25T07:24:28.200Z,696
2016-08-25T07:25:26.778Z,696
2016-08-25T07:26:26.794Z,696
2016-08-25T07:27:30.077Z,700
2016-08-25T07:28:26.115Z,692
2016-08-25T07:29:26.115Z,692
2016-08-25T07:30:28.137Z,696
2016-08-25T07:31:26.836Z,688
2016-08-25T07:32:29.535Z,684
2016-08-25T07:33:27.561Z,688
2016-08-25T07:34:28.159Z,688
2016-08-25T07:35:28.289Z,688
2016-08-25T07:36:26.881Z,684
2016-08-25T07:37:27.596Z,680
2016-08-25T07:38:28.314Z,680
2016-08-25T07:39:28.324Z,676
2016-08-25T07:40:27.631Z,676
2016-08-25T07:41:28.742Z,680
2016-08-25T07:42:27.645Z,676
2016-08-25T07:43:27.752Z,680
2016-08-25T07:44:26.964Z,676
2016-08-25T07:45:29.276Z,676
2016-08-25T07:46:26.263Z,676
2016-08-25T07:47:27.692Z,676
2016-08-25T07:48:26.989Z,672
2016-08-25T07:49:27.704Z,676
2016-08-25T07:50:27.731Z,672
2016-08-25T07:51:27.061Z,672
2016-08-25T07:52:28.482Z,672
2016-08-25T07:53:27.129Z,672
2016-08-25T07:54:29.452Z,672
2016-08-25T07:55:27.764Z,672
2016-08-25T07:56:28.610Z,676
2016-08-25T07:57:27.824Z,668
2016-08-25T07:58:27.075Z,668
2016-08-25T07:59:28.492Z,672
2016-08-25T08:00:27.141Z,668
2016-08-25T08:01:28.516Z,668
2016-08-25T08:02:28.529Z,668
2016-08-25T08:03:28.529Z,668
2016-08-25T08:04:28.541Z,664
2016-08-25T08:05:28.899Z,668
2016-08-25T08:06:27.908Z,668
2016-08-25T08:07:28.817Z,672
2016-08-25T08:08:27.207Z,672
2016-08-25T08:09:27.169Z,672
2016-08-25T08:10:27.184Z,676
2016-08-25T08:11:27.193Z,672
2016-08-25T08:12:27.201Z,676
2016-08-25T08:13:27.908Z,672
2016-08-25T08:14:27.214Z,676
2016-08-25T08:15:28.786Z,676
2016-08-25T08:16:26.526Z,672
2016-08-25T08:17:27.288Z,672
2016-08-25T08:18:28.249Z,676
2016-08-25T08:19:28.671Z,676
2016-08-25T08:20:28.748Z,676
2016-08-25T08:21:29.027Z,676
2016-08-25T08:22:27.295Z,680
2016-08-25T08:23:28.705Z,684
2016-08-25T08:24:28.003Z,684
2016-08-25T08:25:28.029Z,688
2016-08-25T08:26:27.313Z,696
2016-08-25T08:27:29.158Z,700
2016-08-25T08:28:28.041Z,704
2016-08-25T08:29:29.736Z,704
2016-08-25T08:30:28.057Z,712
2016-08-25T08:31:29.060Z,724
2016-08-25T08:32:28.879Z,736
2016-08-25T08:33:27.382Z,748
2016-08-25T08:34:26.678Z,768
2016-08-25T08:35:26.682Z,792
2016-08-25T08:36:28.107Z,812
2016-08-25T08:37:27.461Z,836
2016-08-25T08:38:28.128Z,868
2016-08-25T08:39:28.835Z,936
2016-08-25T08:40:27.881Z,1096
2016-08-25T08:41:27.494Z,1352
2016-08-25T08:42:29.152Z,1692
2016-08-25T08:43:28.165Z,1940
2016-08-25T08:44:28.882Z,2096
2016-08-25T08:45:27.473Z,2164
2016-08-25T08:46:27.487Z,2216
2016-08-25T08:47:28.205Z,2264
2016-08-25T08:48:27.500Z,2260
2016-08-25T08:49:27.559Z,2244
2016-08-25T08:50:27.526Z,2224
2016-08-25T08:51:29.453Z,2192
2016-08-25T08:52:27.537Z,2180
2016-08-25T08:53:28.794Z,2160
2016-08-25T08:54:27.550Z,2140
2016-08-25T08:55:28.270Z,2140
2016-08-25T08:56:28.991Z,2132
2016-08-25T08:57:29.042Z,2132
2016-08-25T08:58:28.351Z,2124
2016-08-25T08:59:27.609Z,2108
2016-08-25T09:00:26.895Z,2104
2016-08-25T09:01:29.039Z,2088
2016-08-25T09:02:28.813Z,2072
2016-08-25T09:03:27.638Z,2080
2016-08-25T09:04:29.554Z,2072
2016-08-25T09:05:27.647Z,2064
2016-08-25T09:06:29.274Z,2076
2016-08-25T09:07:27.711Z,2068
2016-08-25T09:08:27.671Z,2064
2016-08-25T09:09:29.165Z,2048
2016-08-25T09:10:29.103Z,2056
2016-08-25T09:11:28.405Z,2048
2016-08-25T09:12:27.704Z,2072
2016-08-25T09:13:28.424Z,2012
2016-08-25T09:14:28.435Z,2032
2016-08-25T09:15:29.146Z,2024
2016-08-25T09:16:28.468Z,2024
2016-08-25T09:17:29.781Z,2008
2016-08-25T09:18:27.065Z,2024
2016-08-25T09:19:28.472Z,2012
2016-08-25T09:20:27.832Z,1988
2016-08-25T09:21:27.784Z,1996
2016-08-25T09:22:28.497Z,1992
2016-08-25T09:23:29.213Z,1972
2016-08-25T09:24:41.984Z,1968
2016-08-25T09:25:27.827Z,1968
2016-08-25T09:26:28.074Z,1964
2016-08-25T09:27:27.839Z,1960
2016-08-25T09:28:29.267Z,1948
2016-08-25T09:29:28.556Z,1948
2016-08-25T09:30:28.573Z,1944
2016-08-25T09:31:29.284Z,1940
2016-08-25T09:32:27.879Z,1928
2016-08-25T09:33:27.889Z,1916
2016-08-25T09:34:28.603Z,1924
2016-08-25T09:35:27.958Z,1924
2016-08-25T09:36:29.324Z,1924
2016-08-25T09:37:28.188Z,1916
2016-08-25T09:38:28.637Z,1908
2016-08-25T09:39:27.956Z,1908
2016-08-25T09:40:27.997Z,1896
2016-08-25T09:41:28.665Z,1868
2016-08-25T09:42:28.674Z,1876
2016-08-25T09:43:27.983Z,1860
2016-08-25T09:44:28.688Z,1836
2016-08-25T09:45:28.702Z,1844
2016-08-25T09:46:28.711Z,1844
2016-08-25T09:47:27.304Z,2060
2016-08-25T09:48:27.363Z,2056
2016-08-25T09:49:27.317Z,2040
2016-08-25T09:50:28.732Z,1800
2016-08-25T09:51:29.456Z,1800
2016-08-25T09:52:28.758Z,1796
2016-08-25T09:53:28.106Z,1788
2016-08-25T09:54:28.114Z,2448
2016-08-25T09:55:28.787Z,1772
2016-08-25T09:56:28.796Z,1764
2016-08-25T09:57:28.810Z,1764
2016-08-25T09:58:29.531Z,1760
2016-08-25T09:59:29.806Z,1744
2016-08-25T10:00:29.589Z,1744
2016-08-25T10:01:29.232Z,1732
2016-08-25T10:02:29.558Z,1740
2016-08-25T10:03:28.148Z,1728
2016-08-25T10:04:29.573Z,1704
2016-08-25T10:05:27.464Z,1696
2016-08-25T10:06:28.985Z,1704
2016-08-25T10:07:28.943Z,1700
2016-08-25T10:08:28.897Z,1700
2016-08-25T10:09:28.257Z,1688
2016-08-25T10:10:28.208Z,1676
2016-08-25T10:11:28.924Z,1664
2016-08-25T10:12:29.484Z,1676
2016-08-25T10:13:28.942Z,1676
2016-08-25T10:14:30.894Z,1660
2016-08-25T10:15:28.957Z,1488
2016-08-25T10:16:27.551Z,1488
2016-08-25T10:17:29.679Z,1452
2016-08-25T10:18:28.981Z,1468
2016-08-25T10:19:28.283Z,1472
2016-08-25T10:20:29.854Z,1468
2016-08-25T10:21:29.768Z,1468
2016-08-25T10:22:29.063Z,1452
2016-08-25T10:23:28.929Z,1444
2016-08-25T10:24:28.325Z,1444
2016-08-25T10:25:30.315Z,1436
2016-08-25T10:26:27.639Z,1436
2016-08-25T10:27:29.773Z,1428
2016-08-25T10:28:27.657Z,1432
2016-08-25T10:29:28.371Z,1432
2016-08-25T10:30:28.381Z,1440
2016-08-25T10:31:29.093Z,1432
2016-08-25T10:32:27.685Z,1428
2016-08-25T10:33:28.406Z,1428
2016-08-25T10:34:29.427Z,1428
2016-08-25T10:35:28.431Z,1420
2016-08-25T10:36:28.428Z,1412
2016-08-25T10:37:28.441Z,1404
2016-08-25T10:38:29.209Z,1404
2016-08-25T10:39:29.911Z,1388
2016-08-25T10:40:29.181Z,1368
2016-08-25T10:42:29.894Z,1348
2016-08-25T10:43:28.497Z,1360
2016-08-25T10:44:29.930Z,1344
2016-08-25T10:45:28.559Z,1348
2016-08-25T10:46:28.514Z,1356
2016-08-25T10:47:28.539Z,1348
2016-08-25T10:48:29.238Z,1344
2016-08-25T10:49:29.390Z,1340
2016-08-25T10:50:28.547Z,1332
2016-08-25T10:51:28.553Z,1328
2016-08-25T10:52:28.570Z,1336
2016-08-25T10:53:27.870Z,1344
2016-08-25T10:54:29.996Z,1336
2016-08-25T10:55:28.592Z,1324
2016-08-25T10:56:30.020Z,1316
2016-08-25T10:57:27.904Z,1320
2016-08-25T10:58:29.847Z,1340
2016-08-25T10:59:29.380Z,1340
2016-08-25T11:00:29.343Z,1328
2016-08-25T11:01:30.058Z,1300
2016-08-25T11:02:27.949Z,1320
2016-08-25T11:03:28.663Z,1312
2016-08-25T11:04:29.529Z,1300
2016-08-25T11:05:28.722Z,1296
2016-08-25T11:06:29.399Z,1292
2016-08-25T11:07:28.704Z,1292
2016-08-25T11:08:28.723Z,1292
2016-08-25T11:09:30.128Z,1280
2016-08-25T11:10:29.432Z,1284
2016-08-25T11:11:28.583Z,1276
2016-08-25T11:12:28.742Z,1264
2016-08-25T11:13:29.453Z,1248
2016-08-25T11:14:29.460Z,1256
2016-08-25T11:15:29.482Z,1224
2016-08-25T11:16:30.187Z,1232
2016-08-25T11:17:29.485Z,1224
2016-08-25T11:18:29.501Z,1216
2016-08-25T11:19:29.507Z,1192
2016-08-25T11:20:29.654Z,1188
2016-08-25T11:21:29.573Z,1184
2016-08-25T11:22:29.582Z,1180
2016-08-25T11:23:28.879Z,1172
2016-08-25T11:24:30.306Z,1164
2016-08-25T11:25:28.850Z,1148
2016-08-25T11:26:29.567Z,1156
2016-08-25T11:27:28.914Z,1144
2016-08-25T11:28:29.590Z,1148
2016-08-25T11:29:30.303Z,1140
2016-08-25T11:30:29.602Z,1136
2016-08-25T11:31:30.416Z,1128
2016-08-25T11:32:28.200Z,1124
2016-08-25T11:33:31.007Z,1132
2016-08-25T11:34:28.976Z,1132
2016-08-25T11:35:30.353Z,1128
2016-08-25T11:36:30.358Z,1120
2016-08-25T11:37:29.711Z,1116
2016-08-25T11:38:29.012Z,1112
2016-08-25T11:39:28.974Z,1104
2016-08-25T11:40:28.272Z,1092
2016-08-25T11:41:30.423Z,1092
2016-08-25T11:42:30.617Z,1088
2016-08-25T11:43:29.063Z,1084
2016-08-25T11:44:31.207Z,1084
2016-08-25T11:45:28.374Z,1108
2016-08-25T11:46:29.730Z,1104
2016-08-25T11:47:29.747Z,1092
2016-08-25T11:48:29.759Z,1096
2016-08-25T11:49:29.759Z,1104
2016-08-25T11:50:29.786Z,1088
2016-08-25T11:51:29.790Z,1080
2016-08-25T11:52:29.094Z,1072
2016-08-25T11:53:30.503Z,1052
2016-08-25T11:54:29.100Z,1056
2016-08-25T11:55:30.612Z,1048
2016-08-25T11:56:29.819Z,1036
2016-08-25T11:57:29.730Z,1032
2016-08-25T11:58:29.138Z,1024
2016-08-25T11:59:29.897Z,1016
2016-08-25T12:00:29.914Z,1012
2016-08-25T12:01:29.321Z,1004
2016-08-25T12:02:29.877Z,988
2016-08-25T12:03:29.180Z,988
2016-08-25T12:04:29.942Z,976
2016-08-25T12:05:29.201Z,964
2016-08-25T12:06:31.019Z,964
2016-08-25T12:07:29.213Z,948
2016-08-25T12:08:31.614Z,920
2016-08-25T12:09:29.278Z,912
2016-08-25T12:10:29.241Z,912
2016-08-25T12:11:29.965Z,900
2016-08-25T12:12:29.266Z,896
2016-08-25T12:13:28.558Z,884
2016-08-25T12:14:29.329Z,880
2016-08-25T12:15:29.987Z,868
2016-08-25T12:16:29.291Z,840
2016-08-25T12:17:28.589Z,840
2016-08-25T12:18:29.309Z,824
2016-08-25T12:19:30.030Z,820
2016-08-25T12:20:30.214Z,808
2016-08-25T12:21:29.378Z,804
2016-08-25T12:22:30.048Z,800
2016-08-25T12:23:29.403Z,784
2016-08-25T12:24:30.064Z,780
2016-08-25T12:25:28.661Z,780
2016-08-25T12:26:30.087Z,772
2016-08-25T12:27:30.091Z,776
2016-08-25T12:28:30.244Z,756
2016-08-25T12:29:30.834Z,752
2016-08-25T12:30:29.564Z,748
2016-08-25T12:31:30.838Z,748
2016-08-25T12:32:30.931Z,732
2016-08-25T12:33:30.142Z,716
2016-08-25T12:34:29.490Z,720
2016-08-25T12:35:30.917Z,708
2016-08-25T12:36:30.219Z,708
2016-08-25T12:37:29.467Z,704
2016-08-25T12:38:29.540Z,696
2016-08-25T12:39:30.194Z,688
2016-08-25T12:40:29.493Z,684
2016-08-25T12:41:30.214Z,680
2016-08-25T12:42:30.925Z,668
2016-08-25T12:43:30.467Z,660
2016-08-25T12:44:30.999Z,648
2016-08-25T12:45:31.153Z,640
2016-08-25T12:46:30.963Z,624
2016-08-25T12:47:30.268Z,624
2016-08-25T12:48:28.858Z,604
2016-08-25T12:49:30.992Z,596
2016-08-25T12:50:31.003Z,600
2016-08-25T12:51:31.007Z,580
2016-08-25T12:52:32.046Z,580
2016-08-25T12:53:30.323Z,572
2016-08-25T12:54:30.671Z,572
2016-08-25T12:55:30.334Z,580
2016-08-25T12:56:30.342Z,572
2016-08-25T12:57:31.062Z,576
2016-08-25T12:58:28.948Z,572
2016-08-25T12:59:30.416Z,588
2016-08-25T13:00:30.388Z,568
2016-08-25T13:01:30.394Z,580
2016-08-25T13:02:31.108Z,576
2016-08-25T13:03:29.760Z,592
2016-08-25T13:04:30.412Z,580
2016-08-25T13:05:31.211Z,588
2016-08-25T13:06:30.434Z,588
2016-08-25T13:07:29.728Z,592
2016-08-25T13:08:29.739Z,584
2016-08-25T13:09:30.463Z,576
2016-08-25T13:10:30.466Z,572
2016-08-25T13:11:29.764Z,568
2016-08-25T13:12:30.541Z,560
2016-08-25T13:13:29.781Z,568
2016-08-25T13:14:30.499Z,552
2016-08-25T13:15:31.216Z,552
2016-08-25T13:16:31.626Z,552
2016-08-25T13:17:30.529Z,532
2016-08-25T13:18:30.534Z,540
2016-08-25T13:19:30.554Z,536
2016-08-25T13:20:30.559Z,528
2016-08-25T13:21:29.151Z,532
2016-08-25T13:22:30.574Z,524
2016-08-25T13:23:30.578Z,524
2016-08-25T13:24:29.881Z,532
2016-08-25T13:25:30.604Z,532
2016-08-25T13:26:29.189Z,524
2016-08-25T13:27:31.162Z,512
2016-08-25T13:28:31.342Z,516
2016-08-25T13:29:32.560Z,520
2016-08-25T13:30:30.688Z,512
2016-08-25T13:31:29.239Z,516
2016-08-25T13:32:29.953Z,512
2016-08-25T13:33:31.376Z,532
2016-08-25T13:34:30.017Z,512
2016-08-25T13:35:29.994Z,508
2016-08-25T13:36:31.401Z,508
2016-08-25T13:37:29.993Z,504
2016-08-25T13:38:31.569Z,508
2016-08-25T13:39:30.018Z,512
2016-08-25T13:40:32.176Z,520
2016-08-25T13:41:29.339Z,516
2016-08-25T13:42:30.745Z,504
2016-08-25T13:43:30.046Z,504
2016-08-25T13:44:30.776Z,512
2016-08-25T13:45:30.114Z,496
2016-08-25T13:46:29.418Z,500
2016-08-25T13:47:30.083Z,496
2016-08-25T13:48:30.103Z,500
2016-08-25T13:49:31.060Z,500
2016-08-25T13:50:30.112Z,496
2016-08-25T13:51:32.475Z,496
2016-08-25T13:52:30.835Z,496
2016-08-25T13:53:31.548Z,496
2016-08-25T13:54:31.570Z,504
2016-08-25T13:55:30.859Z,492